^^
Meteo Knjazevac Station Historical Data
Daily Summary for January 22, 2021 Units:  English    Metric   Both
Daily Weekly Monthly Yearly Custom
  High: Low: Average:
Temperature: 55.6 °F 52.3 °F 53.9 °F
Dew Point: 49.8 °F 47 °F 48.2 °F
Humidity: 85% 75% 81%
Wind Speed: 8mph 0mph 3mph
Wind Gust: 13mph - -
Wind- - West
Pressure: 30.29 in 30.22 in -
Precipitation: 0.00 in    
Historical Graphs
 
 
Tabular Data for January 22, 2021
Time Temperature Dew Point Pressure Wind Wind Speed Wind Gust Humidity Rainfall Rate (Hourly) solar Conditions
00:00 55.6 °F 49.8 °F 30.29 in WSW 2 mph 8 mph 81% 0.00 in 0 W/m2
00:10 55.6 °F 49.8 °F 30.29 in WSW 2 mph 4 mph 81% 0.00 in 0 W/m2
00:20 55.4 °F 49.7 °F 30.29 in WSW 2 mph 5 mph 81% 0.00 in 0 W/m2
00:30 55.4 °F 49.7 °F 30.29 in WSW 2 mph 6 mph 81% 0.00 in 0 W/m2
00:40 55.2 °F 49.5 °F 30.29 in WSW 2 mph 6 mph 81% 0.00 in 0 W/m2
00:50 55.2 °F 49.5 °F 30.28 in West 1 mph 3 mph 81% 0.00 in 0 W/m2
01:00 55 °F 49.3 °F 30.29 in West 2 mph 5 mph 81% 0.00 in 0 W/m2
01:10 55 °F 49.3 °F 30.29 in West 3 mph 5 mph 81% 0.00 in 0 W/m2
01:20 55.2 °F 49.4 °F 30.29 in WSW 2 mph 5 mph 81% 0.00 in 0 W/m2
01:30 55 °F 49.3 °F 30.28 in West 1 mph 4 mph 81% 0.00 in 0 W/m2
01:40 55 °F 49.3 °F 30.28 in West 1 mph 5 mph 81% 0.00 in 0 W/m2
01:50 54.9 °F 49.1 °F 30.28 in Calm   2 mph 81% 0.00 in 0 W/m2
02:00 54.9 °F 49.1 °F 30.28 in Calm   2 mph 81% 0.00 in 0 W/m2
02:10 54.7 °F 49 °F 30.27 in Calm   2 mph 81% 0.00 in 0 W/m2
02:20 54.5 °F 48.8 °F 30.27 in WNW 1 mph 2 mph 81% 0.00 in 0 W/m2
02:30 54.5 °F 48.8 °F 30.27 in WSW 1 mph 4 mph 81% 0.00 in 0 W/m2
02:40 54.3 °F 49.3 °F 30.27 in West 2 mph 4 mph 83% 0.00 in 0 W/m2
02:50 54.1 °F 49.1 °F 30.26 in WNW 2 mph 4 mph 83% 0.00 in 0 W/m2
03:00 54.1 °F 49.1 °F 30.26 in NW 1 mph 4 mph 83% 0.00 in 0 W/m2
03:10 54.1 °F 49.1 °F 30.25 in Calm   3 mph 83% 0.00 in 0 W/m2
03:20 54 °F 48.9 °F 30.25 in Calm   1 mph 83% 0.00 in 0 W/m2
03:30 54 °F 49.2 °F 30.25 in NNW 1 mph 2 mph 84% 0.00 in 0 W/m2
03:40 53.8 °F 49.1 °F 30.25 in Calm   1 mph 84% 0.00 in 0 W/m2
03:50 53.6 °F 49.2 °F 30.25 in Calm   2 mph 85% 0.00 in 0 W/m2
04:00 53.6 °F 49.2 °F 30.25 in Calm   2 mph 85% 0.00 in 0 W/m2
04:10 53.4 °F 49 °F 30.25 in West 2 mph 3 mph 85% 0.00 in 0 W/m2
04:20 53.2 °F 48.5 °F 30.25 in West 1 mph 3 mph 84% 0.00 in 0 W/m2
04:30 53.2 °F 48.5 °F 30.25 in West 1 mph 3 mph 84% 0.00 in 0 W/m2
04:40 53.1 °F 48.4 °F 30.25 in West 1 mph 3 mph 84% 0.00 in 0 W/m2
04:50 53.1 °F 48 °F 30.25 in WNW 1 mph 3 mph 83% 0.00 in 0 W/m2
05:00 52.9 °F 47.9 °F 30.25 in WNW 1 mph 3 mph 83% 0.00 in 0 W/m2
05:10 52.9 °F 48.2 °F 30.25 in West 2 mph 4 mph 84% 0.00 in 0 W/m2
05:20 52.9 °F 47.9 °F 30.25 in West 2 mph 6 mph 83% 0.00 in 0 W/m2
05:30 52.7 °F 47.4 °F 30.25 in WSW 3 mph 7 mph 82% 0.00 in 0 W/m2
05:40 52.9 °F 47.2 °F 30.24 in WSW 5 mph 8 mph 81% 0.00 in 0 W/m2
05:50 52.9 °F 47.9 °F 30.24 in SW 3 mph 6 mph 83% 0.00 in 0 W/m2
06:00 52.9 °F 48.2 °F 30.24 in WSW 3 mph 6 mph 84% 0.00 in 0 W/m2
06:10 52.7 °F 48.3 °F 30.25 in WSW 2 mph 6 mph 85% 0.00 in 0 W/m2
06:20 52.7 °F 48.3 °F 30.24 in SW 3 mph 5 mph 85% 0.00 in 0 W/m2
06:30 52.5 °F 48.1 °F 30.24 in WSW 3 mph 5 mph 85% 0.00 in 1 W/m2
06:40 52.7 °F 48.3 °F 30.24 in SW 5 mph 7 mph 85% 0.00 in 2 W/m2
06:50 52.6 °F 48.3 °F 30.23 in WSW 2 mph 5 mph 85% 0.00 in 5 W/m2
07:00 52.5 °F 48.1 °F 30.23 in WSW 3 mph 5 mph 85% 0.00 in 8 W/m2
07:10 52.3 °F 48 °F 30.23 in SW 3 mph 5 mph 85% 0.00 in 14 W/m2
07:20 52.3 °F 48 °F 30.23 in WSW 3 mph 6 mph 85% 0.00 in 26 W/m2
07:30 52.3 °F 48 °F 30.22 in SW 5 mph 7 mph 85% 0.00 in 24 W/m2
07:40 52.3 °F 48 °F 30.22 in SW 3 mph 7 mph 85% 0.00 in 35 W/m2
07:50 52.5 °F 47.8 °F 30.22 in WSW 6 mph 12 mph 84% 0.00 in 34 W/m2
08:00 52.7 °F 47 °F 30.23 in WSW 5 mph 10 mph 81% 0.00 in 37 W/m2
08:10 52.9 °F 47.2 °F 30.22 in West 6 mph 10 mph 81% 0.00 in 43 W/m2
08:20 52.9 °F 47.2 °F 30.22 in West 8 mph 12 mph 81% 0.00 in 57 W/m2
08:30 52.9 °F 47.3 °F 30.22 in West 7 mph 12 mph 81% 0.00 in 51 W/m2
08:40 53.1 °F 47.4 °F 30.22 in West 5 mph 12 mph 81% 0.00 in 67 W/m2
08:50 53.2 °F 47.2 °F 30.22 in West 7 mph 10 mph 80% 0.00 in 104 W/m2
09:00 53.4 °F 47.4 °F 30.22 in West 5 mph 9 mph 80% 0.00 in 96 W/m2
09:10 53.6 °F 47.2 °F 30.22 in West 7 mph 13 mph 79% 0.00 in 105 W/m2
09:20 53.8 °F 47.4 °F 30.22 in West 5 mph 13 mph 79% 0.00 in 84 W/m2
09:30 53.8 °F 47.1 °F 30.22 in West 6 mph 12 mph 78% 0.00 in 97 W/m2
09:40 54 °F 47.3 °F 30.22 in West 3 mph 13 mph 78% 0.00 in 76 W/m2
09:50 54 °F 47.3 °F 30.22 in West 3 mph 12 mph 78% 0.00 in 89 W/m2
10:00 54 °F 47.3 °F 30.22 in West 7 mph 11 mph 78% 0.00 in 83 W/m2
10:10 54.1 °F 47.4 °F 30.22 in West 3 mph 10 mph 78% 0.00 in 76 W/m2
10:20 54.1 °F 47.4 °F 30.22 in West 3 mph 7 mph 78% 0.00 in 106 W/m2
10:30 54.1 °F 47.1 °F 30.22 in West 6 mph 13 mph 77% 0.00 in 103 W/m2
10:40 54.3 °F 47.3 °F 30.22 in West 6 mph 11 mph 77% 0.00 in 132 W/m2
10:50 54.5 °F 47.4 °F 30.22 in West 5 mph 12 mph 77% 0.00 in 188 W/m2
11:00 54.9 °F 47.8 °F 30.22 in WSW 6 mph 11 mph 77% 0.00 in 151 W/m2
11:10 55 °F 47.3 °F 30.22 in West 5 mph 13 mph 75% 0.00 in 110 W/m2
11:20 55 °F 47.3 °F 30.22 in WSW 5 mph 12 mph 75% 0.00 in 78 W/m2
11:30 55 °F 47.6 °F 30.22 in West 2 mph 6 mph 76% 0.00 in 68 W/m2
11:40 55 °F 47.3 °F 30.22 in WNW 5 mph 8 mph 75% 0.00 in 63 W/m2
11:50 55 °F 47.3 °F 30.22 in WNW 3 mph 7 mph 75% 0.00 in 64 W/m2
12:00 55 °F 47.3 °F 30.22 in WNW 3 mph 6 mph 75% 0.00 in 65 W/m2
12:10 55 °F 47.2 °F 30.22 in NW 1 mph 6 mph 75% 0.00 in 66 W/m2
12:20 55 °F 47.3 °F 30.22 in WNW 3 mph 6 mph 75% 0.00 in 73 W/m2
12:30 55 °F 47.3 °F 30.22 in NW 5 mph 9 mph 75% 0.00 in 59 W/m2
Knjazevac, Serbia
Compliments of Weather Underground - 2 mb